FredonyerEastRWIS Atmospheric Data: 06/13/2018 Summary  Detailed Graphs  Station List

  Temperature     Wind Precipitation Visibility
Timestamp Air Wet
Bulb
Dew-
point
24-hr
Max
24-hr
Min
Relative
Humidity
Atmospheric
Pressure
Avg
Speed
Avg
Dir
Spot
Speed
Spot
Dir
Max
Speed
Max
Dir
  Rate Situation Start End 1 hr 3 hr 6 hr 12 hr 24 hr   Situation
Date Time °F °F °F °F °F % in Hg mph ° mph ° mph ° Y/N in/hr text Date Time Date Time in in in in in mi text
06/13/2018 12:08 AM 51.62 46.40 40.82 85.82 39.56 66.0 Not Reported 1.57 NW 1.57 N 2.24 NW No x No Precipitation 06/12/2018 05:17 PM 06/12/2018 05:18 PM x x x x x Not Reported Not Reported
06/13/2018 12:23 AM 51.26 46.22 40.64 85.82 39.56 66.0 Not Reported 1.79 NW 1.57 NW 2.46 NW No x No Precipitation 06/12/2018 05:17 PM 06/12/2018 05:18 PM x x x x x Not Reported Not Reported
06/13/2018 12:38 AM 51.08 46.04 40.46 85.82 39.56 66.0 Not Reported 0.45 NW 1.79 W 2.24 W No x No Precipitation 06/12/2018 05:17 PM 06/12/2018 05:18 PM x x x x x Not Reported Not Reported
06/13/2018 12:53 AM 50.72 45.86 40.46 85.82 39.56 67.0 Not Reported 1.34 NW 1.57 NW 2.46 NW No x No Precipitation 06/12/2018 05:17 PM 06/12/2018 05:18 PM x x x x x Not Reported Not Reported
06/13/2018 01:08 AM 50.18 45.32 39.92 85.82 39.56 67.0 Not Reported 1.34 NW 1.12 NW 1.57 NW No x No Precipitation 06/12/2018 05:17 PM 06/12/2018 05:18 PM x x x x x Not Reported Not Reported
06/13/2018 01:25 AM 49.46 44.96 39.92 85.82 39.56 69.0 Not Reported 0.22 W 0.00 W 1.79 W No x No Precipitation 06/12/2018 05:17 PM 06/12/2018 05:18 PM x x x x x Not Reported Not Reported
06/13/2018 01:38 AM 48.74 44.42 39.74 85.82 39.56 70.0 Not Reported 1.12 NW 0.67 NW 1.79 NW No x No Precipitation 06/12/2018 05:17 PM 06/12/2018 05:18 PM x x x x x Not Reported Not Reported
06/13/2018 01:53 AM 48.56 44.42 39.74 85.82 39.56 71.0 Not Reported 0.89 NW 2.01 NW 3.36 NW No x No Precipitation 06/12/2018 05:17 PM 06/12/2018 05:18 PM x x x x x Not Reported Not Reported
06/13/2018 02:08 AM 48.74 44.60 40.10 85.82 39.56 71.0 Not Reported 1.79 NW 1.34 NW 2.68 NW No x No Precipitation 06/12/2018 05:17 PM 06/12/2018 05:18 PM x x x x x Not Reported Not Reported
06/13/2018 02:23 AM 48.56 44.60 40.10 85.82 39.56 72.0 Not Reported 0.00 NW 0.00 NW 2.01 W No x No Precipitation 06/12/2018 05:17 PM 06/12/2018 05:18 PM x x x x x Not Reported Not Reported
06/13/2018 02:38 AM 48.02 44.06 39.56 85.82 39.56 72.0 Not Reported 0.67 W 0.00 W 1.34 W No x No Precipitation 06/12/2018 05:17 PM 06/12/2018 05:18 PM x x x x x Not Reported Not Reported
06/13/2018 02:53 AM 47.66 43.70 39.20 85.82 39.56 72.0 Not Reported 0.89 NW 1.34 NW 1.57 N No x No Precipitation 06/12/2018 05:17 PM 06/12/2018 05:18 PM x x x x x Not Reported Not Reported
06/13/2018 03:08 AM 47.30 43.52 39.38 85.82 39.56 73.0 Not Reported 0.00 W 0.00 W 2.46 NW No x No Precipitation 06/12/2018 05:17 PM 06/12/2018 05:18 PM x x x x x Not Reported Not Reported
06/13/2018 03:23 AM 46.94 43.34 39.20 85.82 39.56 74.0 Not Reported 0.22 N 0.22 NW 2.68 NW No x No Precipitation 06/12/2018 05:17 PM 06/12/2018 05:18 PM x x x x x Not Reported Not Reported
06/13/2018 03:38 AM 46.76 43.16 38.84 85.82 39.56 73.0 Not Reported 1.79 NW 2.24 NW 3.13 NW No x No Precipitation 06/12/2018 05:17 PM 06/12/2018 05:18 PM x x x x x Not Reported Not Reported
06/13/2018 03:53 AM 46.76 43.16 38.66 85.82 39.56 72.0 Not Reported 0.45 NW 1.12 NW 2.46 NW No x No Precipitation 06/12/2018 05:17 PM 06/12/2018 05:18 PM x x x x x Not Reported Not Reported
06/13/2018 04:08 AM 46.58 42.80 38.48 85.82 39.56 73.0 Not Reported 1.34 NW 1.12 NW 2.24 NW No x No Precipitation 06/12/2018 05:17 PM 06/12/2018 05:18 PM x x x x x Not Reported Not Reported
06/13/2018 04:23 AM 46.22 42.62 38.48 85.82 39.56 74.0 Not Reported 0.67 NW 0.22 NW 1.79 N No x No Precipitation 06/12/2018 05:17 PM 06/12/2018 05:18 PM x x x x x Not Reported Not Reported
06/13/2018 04:38 AM 46.22 42.80 38.84 85.82 39.56 75.0 Not Reported 1.79 NW 1.79 NW 3.13 W No x No Precipitation 06/12/2018 05:17 PM 06/12/2018 05:18 PM x x x x x Not Reported Not Reported
06/13/2018 04:53 AM 46.04 42.80 39.02 85.82 39.56 76.0 Not Reported 1.57 NW 2.24 W 2.68 NW No x No Precipitation 06/12/2018 05:17 PM 06/12/2018 05:18 PM x x x x x Not Reported Not Reported
06/13/2018 05:08 AM 45.68 42.62 39.02 85.82 39.56 77.0 Not Reported 1.34 NW 0.67 N 2.01 NW No x No Precipitation 06/12/2018 05:17 PM 06/12/2018 05:18 PM x x x x x Not Reported Not Reported
06/13/2018 05:23 AM 45.50 42.44 39.02 85.82 39.56 77.0 Not Reported 0.22 NW 0.00 NW 1.57 W No x No Precipitation 06/12/2018 05:17 PM 06/12/2018 05:18 PM x x x x x Not Reported Not Reported
06/13/2018 05:38 AM 44.96 41.90 38.84 85.82 40.64 78.0 Not Reported 0.22 NW 0.00 NW 1.34 NW No x No Precipitation 06/12/2018 05:17 PM 06/12/2018 05:18 PM x x x x x Not Reported Not Reported
06/13/2018 05:53 AM 44.24 41.72 38.84 85.82 40.64 81.0 Not Reported 0.00 NW 0.00 NW 0.00 x No x No Precipitation 06/12/2018 05:17 PM 06/12/2018 05:18 PM x x x x x Not Reported Not Reported
06/13/2018 06:08 AM 44.24 42.08 39.38 85.82 40.64 83.0 Not Reported 0.00 N 0.00 N 1.34 NW No x No Precipitation 06/12/2018 05:17 PM 06/12/2018 05:18 PM x x x x x Not Reported Not Reported
06/13/2018 06:23 AM 44.42 42.44 40.28 85.82 40.64 85.0 Not Reported 0.00 N 0.00 N 0.00 N No x No Precipitation 06/12/2018 05:17 PM 06/12/2018 05:18 PM x x x x x Not Reported Not Reported
06/13/2018 06:38 AM 45.32 43.52 41.72 85.82 44.24 87.0 Not Reported 0.00 NW 0.00 NW 0.00 x No x No Precipitation 06/12/2018 05:17 PM 06/12/2018 05:18 PM x x x x x Not Reported Not Reported
06/13/2018 06:53 AM 46.76 44.96 43.34 85.82 44.24 88.0 Not Reported 0.00 N 0.00 N 1.12 N No x No Precipitation 06/12/2018 05:17 PM 06/12/2018 05:18 PM x x x x x Not Reported Not Reported
06/13/2018 07:08 AM 50.72 48.38 46.04 85.82 44.24 83.0 Not Reported 0.00 NW 0.00 NW 0.00 x No x No Precipitation 06/12/2018 05:17 PM 06/12/2018 05:18 PM x x x x x Not Reported Not Reported
06/13/2018 07:23 AM 54.14 50.90 48.02 85.82 44.24 80.0 Not Reported 0.00 NE 0.00 E 0.00 x No x No Precipitation 06/12/2018 05:17 PM 06/12/2018 05:18 PM x x x x x Not Reported Not Reported
06/13/2018 07:38 AM 58.82 53.78 49.64 85.82 44.24 71.0 Not Reported 0.22 SE 0.00 SE 1.79 SE No x No Precipitation 06/12/2018 05:17 PM 06/12/2018 05:18 PM x x x x x Not Reported Not Reported
06/13/2018 07:53 AM 60.98 54.86 49.82 85.82 44.24 66.0 Not Reported 0.89 SE 0.22 S 2.01 S No x No Precipitation 06/12/2018 05:17 PM 06/12/2018 05:18 PM x x x x x Not Reported Not Reported
06/13/2018 08:08 AM 62.96 55.76 49.82 85.82 44.24 62.0 Not Reported 0.45 E 2.01 S 2.68 SE No x No Precipitation 06/12/2018 05:17 PM 06/12/2018 05:18 PM x x x x x Not Reported Not Reported
06/13/2018 08:23 AM 64.58 55.40 47.48 85.82 44.24 53.0 Not Reported 1.34 S 2.24 SE 4.70 S No x No Precipitation 06/12/2018 05:17 PM 06/12/2018 05:18 PM x x x x x Not Reported Not Reported
06/13/2018 08:38 AM 67.46 57.20 48.38 85.82 44.24 50.0 Not Reported 1.57 SE 1.79 SE 3.13 SE No x No Precipitation 06/12/2018 05:17 PM 06/12/2018 05:18 PM x x x x x Not Reported Not Reported
06/13/2018 08:53 AM 70.52 58.64 48.74 85.82 44.24 46.0 Not Reported 1.57 SE 1.79 E 3.36 SE No x No Precipitation 06/12/2018 05:17 PM 06/12/2018 05:18 PM x x x x x Not Reported Not Reported
06/13/2018 09:08 AM 72.32 59.00 47.48 85.82 44.24 41.0 Not Reported 2.68 SW 4.47 SW 8.95 S No x No Precipitation 06/12/2018 05:17 PM 06/12/2018 05:18 PM x x x x x Not Reported Not Reported
06/13/2018 09:23 AM 73.22 59.36 47.12 85.82 44.24 39.0 Not Reported 4.92 S 5.37 S 9.40 S No x No Precipitation 06/12/2018 05:17 PM 06/12/2018 05:18 PM x x x x x Not Reported Not Reported
06/13/2018 09:38 AM 74.66 60.26 48.02 85.82 44.24 39.0 Not Reported 2.46 NW 1.57 SW 8.05 W No x No Precipitation 06/12/2018 05:17 PM 06/12/2018 05:18 PM x x x x x Not Reported Not Reported
06/13/2018 09:53 AM 74.30 60.08 47.84 85.82 44.24 39.0 Not Reported 4.25 SW 4.47 NW 9.84 NW No x No Precipitation 06/12/2018 05:17 PM 06/12/2018 05:18 PM x x x x x Not Reported Not Reported
06/13/2018 10:08 AM 75.56 60.62 47.66 85.82 44.24 37.0 Not Reported 3.36 S 5.59 S 9.40 NW No x No Precipitation 06/12/2018 05:17 PM 06/12/2018 05:18 PM x x x x x Not Reported Not Reported
06/13/2018 10:23 AM 75.74 60.26 46.58 85.82 44.24 35.0 Not Reported 5.37 SW 8.05 S 15.21 S No x No Precipitation 06/12/2018 05:17 PM 06/12/2018 05:18 PM x x x x x Not Reported Not Reported
06/13/2018 10:38 AM 76.10 60.44 46.22 85.82 44.24 34.0 Not Reported 4.47 SW 3.58 W 9.84 S No x No Precipitation 06/12/2018 05:17 PM 06/12/2018 05:18 PM x x x x x Not Reported Not Reported
06/13/2018 10:53 AM 76.64 60.62 46.04 85.82 44.24 33.0 Not Reported 5.14 NW 9.17 NW 12.75 SW No x No Precipitation 06/12/2018 05:17 PM 06/12/2018 05:18 PM x x x x x Not Reported Not Reported
06/13/2018 11:08 AM 77.36 61.16 46.40 85.82 44.24 33.0 Not Reported 6.49 NW 1.12 E 11.86 NW No x No Precipitation 06/12/2018 05:17 PM 06/12/2018 05:18 PM x x x x x Not Reported Not Reported
06/13/2018 11:23 AM 77.72 61.34 46.58 85.82 44.24 33.0 Not Reported 3.58 SW 5.59 SW 14.54 S No x No Precipitation 06/12/2018 05:17 PM 06/12/2018 05:18 PM x x x x x Not Reported Not Reported
06/13/2018 11:38 AM 78.62 62.06 47.48 85.82 44.24 33.0 Not Reported 6.26 SE 14.09 SE 14.54 SE No x No Precipitation 06/12/2018 05:17 PM 06/12/2018 05:18 PM x x x x x Not Reported Not Reported
06/13/2018 11:55 AM 78.44 61.88 47.12 85.82 44.24 33.0 Not Reported 4.92 W 4.03 N 10.96 S No x No Precipitation 06/12/2018 05:17 PM 06/12/2018 05:18 PM x x x x x Not Reported Not Reported
06/13/2018 12:08 PM 78.80 62.06 46.94 85.82 44.24 32.0 Not Reported 4.47 SW 2.24 W 12.97 SW No x No Precipitation 06/12/2018 05:17 PM 06/12/2018 05:18 PM x x x x x Not Reported Not Reported
06/13/2018 12:23 PM 79.70 62.42 47.30 85.82 44.24 32.0 Not Reported 6.49 NW 4.70 W 17.45 NW No x No Precipitation 06/12/2018 05:17 PM 06/12/2018 05:18 PM x x x x x Not Reported Not Reported
06/13/2018 12:38 PM 81.14 63.50 48.74 85.82 44.24 32.0 Not Reported 5.82 NW 14.76 NW 13.42 NW No x No Precipitation 06/12/2018 05:17 PM 06/12/2018 05:18 PM x x x x x Not Reported Not Reported
06/13/2018 12:53 PM 79.52 62.42 47.66 85.82 44.24 32.0 Not Reported 6.71 S 2.24 SW 17.00 S No x No Precipitation 06/12/2018 05:17 PM 06/12/2018 05:18 PM x x x x x Not Reported Not Reported
06/13/2018 01:08 PM 80.06 62.60 47.84 85.82 44.24 32.0 Not Reported 4.70 S 8.95 S 12.97 SW No x No Precipitation 06/12/2018 05:17 PM 06/12/2018 05:18 PM x x x x x Not Reported Not Reported
06/13/2018 01:23 PM 80.24 62.96 48.02 85.82 44.24 32.0 Not Reported 4.70 SW 1.57 S 15.66 S No x No Precipitation 06/12/2018 05:17 PM 06/12/2018 05:18 PM x x x x x Not Reported Not Reported
06/13/2018 01:40 PM 80.78 63.14 48.02 85.82 44.24 31.0 Not Reported 8.50 NW 4.25 N 17.22 NW No x No Precipitation 06/12/2018 05:17 PM 06/12/2018 05:18 PM x x x x x Not Reported Not Reported
06/13/2018 01:53 PM 82.22 64.04 48.92 85.82 44.24 31.0 Not Reported 3.80 S 7.61 SW 13.20 NW No x No Precipitation 06/12/2018 05:17 PM 06/12/2018 05:18 PM x x x x x Not Reported Not Reported
06/13/2018 02:08 PM 81.50 63.50 48.38 85.82 44.24 31.0 Not Reported 6.93 S 6.04 W 13.42 S No x No Precipitation 06/12/2018 05:17 PM 06/12/2018 05:18 PM x x x x x Not Reported Not Reported
06/13/2018 02:23 PM 81.32 63.32 48.02 85.82 44.24 31.0 Not Reported 6.26 SW 8.05 S 14.54 SW No x No Precipitation 06/12/2018 05:17 PM 06/12/2018 05:18 PM x x x x x Not Reported Not Reported
06/13/2018 02:38 PM 82.22 64.04 48.74 85.82 44.24 31.0 Not Reported 8.50 SW 9.40 NW 15.66 SW No x No Precipitation 06/12/2018 05:17 PM 06/12/2018 05:18 PM x x x x x Not Reported Not Reported
06/13/2018 02:55 PM 82.22 64.04 48.92 85.82 44.24 31.0 Not Reported 9.62 S 8.95 SE 16.11 S No x No Precipitation 06/12/2018 05:17 PM 06/12/2018 05:18 PM x x x x x Not Reported Not Reported
06/13/2018 03:08 PM 81.50 63.50 48.38 85.82 44.24 31.0 Not Reported 9.84 SW 7.38 S 15.43 W No x No Precipitation 06/12/2018 05:17 PM 06/12/2018 05:18 PM x x x x x Not Reported Not Reported
06/13/2018 03:23 PM 82.40 64.04 48.56 85.82 44.24 30.0 Not Reported 5.37 SE 2.46 SW 13.65 S No x No Precipitation 06/12/2018 05:17 PM 06/12/2018 05:18 PM x x x x x Not Reported Not Reported
06/13/2018 03:38 PM 82.22 63.86 48.56 85.64 44.24 30.0 Not Reported 6.49 W 5.82 S 18.57 S No x No Precipitation 06/12/2018 05:17 PM 06/12/2018 05:18 PM x x x x x Not Reported Not Reported
06/13/2018 03:53 PM 82.58 64.22 48.92 85.64 44.24 30.0 Not Reported 7.38 SW 3.80 S 18.57 S No x No Precipitation 06/12/2018 05:17 PM 06/12/2018 05:18 PM x x x x x Not Reported Not Reported
06/13/2018 04:08 PM 82.76 64.22 48.74 85.64 44.24 30.0 Not Reported 8.28 W 1.57 SW 16.33 SW No x No Precipitation 06/12/2018 05:17 PM 06/12/2018 05:18 PM x x x x x Not Reported Not Reported
06/13/2018 04:23 PM 82.58 64.22 48.92 85.64 44.24 30.0 Not Reported 4.47 SW 8.95 W 13.20 SW No x No Precipitation 06/12/2018 05:17 PM 06/12/2018 05:18 PM x x x x x Not Reported Not Reported
06/13/2018 04:38 PM 82.94 64.22 49.10 85.64 44.24 30.0 Not Reported 6.26 SW 4.47 S 12.08 SW No x No Precipitation 06/12/2018 05:17 PM 06/12/2018 05:18 PM x x x x x Not Reported Not Reported
06/13/2018 04:53 PM 81.50 63.50 48.02 85.64 44.24 31.0 Not Reported 2.91 S 7.61 S 22.59 S No x No Precipitation 06/12/2018 05:17 PM 06/12/2018 05:18 PM x x x x x Not Reported Not Reported
06/13/2018 05:08 PM 81.14 63.14 47.66 85.64 44.24 31.0 Not Reported 5.14 W 11.41 W 13.87 SW No x No Precipitation 06/12/2018 05:17 PM 06/12/2018 05:18 PM x x x x x Not Reported Not Reported
06/13/2018 05:23 PM 80.78 62.96 47.66 85.64 44.24 31.0 Not Reported 7.61 W 8.50 S 14.99 NW No x No Precipitation 06/12/2018 05:17 PM 06/12/2018 05:18 PM x x x x x Not Reported Not Reported
06/13/2018 05:38 PM 80.42 62.78 47.48 83.30 44.24 31.0 Not Reported 6.71 SW 12.30 SW 16.33 S No x No Precipitation 06/12/2018 05:17 PM 06/12/2018 05:18 PM x x x x x Not Reported Not Reported
06/13/2018 05:54 PM 80.06 62.42 47.12 83.30 44.24 31.0 Not Reported 5.82 S 3.13 SE 12.53 S No x No Precipitation 06/12/2018 05:17 PM 06/12/2018 05:18 PM x x x x x Not Reported Not Reported
06/13/2018 06:08 PM 79.52 62.24 47.12 83.30 44.24 31.0 Not Reported 6.26 SW 4.03 S 12.53 S No x No Precipitation 06/12/2018 05:17 PM 06/12/2018 05:18 PM x x x x x Not Reported Not Reported
06/13/2018 06:23 PM 78.62 61.70 46.58 83.30 44.24 32.0 Not Reported 5.59 SW 6.49 SW 14.99 SW No x No Precipitation 06/12/2018 05:17 PM 06/12/2018 05:18 PM x x x x x Not Reported Not Reported
06/13/2018 06:38 PM 78.44 61.52 46.58 83.30 44.24 32.0 Not Reported 4.03 SW 1.79 W 11.86 S No x No Precipitation 06/12/2018 05:17 PM 06/12/2018 05:18 PM x x x x x Not Reported Not Reported
06/13/2018 06:53 PM 78.62 61.88 46.94 83.30 44.24 32.0 Not Reported 2.01 SW 4.70 S 10.07 SW No x No Precipitation 06/12/2018 05:17 PM 06/12/2018 05:18 PM x x x x x Not Reported Not Reported
06/13/2018 07:08 PM 75.92 60.08 45.14 83.30 44.24 33.0 Not Reported 4.47 SW 0.00 W 10.07 W No x No Precipitation 06/12/2018 05:17 PM 06/12/2018 05:18 PM x x x x x Not Reported Not Reported
06/13/2018 07:23 PM 73.94 59.00 44.42 83.30 44.24 34.0 Not Reported 1.34 N 1.57 S 13.20 NW No x No Precipitation 06/13/2018 07:11 PM 06/13/2018 07:12 PM x x x x x Not Reported Not Reported
06/13/2018 07:38 PM 72.86 58.28 44.06 83.30 44.24 35.0 Not Reported 4.03 NW 5.59 W 9.84 W No x No Precipitation 06/13/2018 07:11 PM 06/13/2018 07:12 PM x x x x x Not Reported Not Reported
06/13/2018 07:53 PM 71.24 57.38 43.70 83.30 44.24 37.0 Not Reported 4.03 W 4.25 W 8.28 W No x No Precipitation 06/13/2018 07:11 PM 06/13/2018 07:12 PM x x x x x Not Reported Not Reported
06/13/2018 08:10 PM 68.54 56.12 43.88 83.30 44.24 40.0 Not Reported 2.46 SW 4.25 S 5.59 S No x No Precipitation 06/13/2018 07:11 PM 06/13/2018 07:12 PM x x x x x Not Reported Not Reported
06/13/2018 08:23 PM 67.46 55.58 43.70 83.30 44.24 42.0 Not Reported 2.68 SW 2.24 SW 7.61 SW No x No Precipitation 06/13/2018 07:11 PM 06/13/2018 07:12 PM x x x x x Not Reported Not Reported
06/13/2018 08:38 PM 66.92 55.22 43.70 83.30 44.24 42.0 Not Reported 2.46 W 0.00 N 4.25 SE No x No Precipitation 06/13/2018 07:11 PM 06/13/2018 07:12 PM x x x x x Not Reported Not Reported
06/13/2018 08:53 PM 63.86 53.60 43.70 83.30 44.24 47.0 Not Reported 2.46 NW 2.24 N 4.03 SW No x No Precipitation 06/13/2018 07:11 PM 06/13/2018 07:12 PM x x x x x Not Reported Not Reported
06/13/2018 09:08 PM 61.52 52.52 43.70 83.30 44.24 51.0 Not Reported 2.01 NW 1.34 NW 3.58 N No x No Precipitation 06/13/2018 07:11 PM 06/13/2018 07:12 PM x x x x x Not Reported Not Reported
06/13/2018 09:23 PM 60.62 52.34 44.06 83.30 44.24 54.0 Not Reported 3.36 NW 1.79 NW 5.59 W No x No Precipitation 06/13/2018 07:11 PM 06/13/2018 07:12 PM x x x x x Not Reported Not Reported
06/13/2018 09:38 PM 60.26 52.16 44.24 83.30 44.24 55.0 Not Reported 2.24 W 3.36 NW 5.14 W No x No Precipitation 06/13/2018 07:11 PM 06/13/2018 07:12 PM x x x x x Not Reported Not Reported
06/13/2018 09:53 PM 59.72 51.98 44.42 83.30 44.24 57.0 Not Reported 2.46 W 3.36 W 5.59 W No x No Precipitation 06/13/2018 07:11 PM 06/13/2018 07:12 PM x x x x x Not Reported Not Reported
06/13/2018 10:08 PM 59.00 51.62 44.60 83.30 44.24 58.0 Not Reported 1.79 NW 0.22 N 3.58 NW No x No Precipitation 06/13/2018 07:11 PM 06/13/2018 07:12 PM x x x x x Not Reported Not Reported
06/13/2018 10:23 PM 58.10 51.08 44.24 83.30 44.24 60.0 Not Reported 0.67 W 0.00 S 2.91 NW No x No Precipitation 06/13/2018 07:11 PM 06/13/2018 07:12 PM x x x x x Not Reported Not Reported
06/13/2018 10:38 PM 56.48 50.18 43.88 83.30 44.24 62.0 Not Reported 0.67 NW 0.00 NW 1.57 NW No x No Precipitation 06/13/2018 07:11 PM 06/13/2018 07:12 PM x x x x x Not Reported Not Reported
06/13/2018 10:55 PM 55.22 49.46 43.70 83.30 44.24 65.0 Not Reported 0.00 W 0.00 W 1.57 NW No x No Precipitation 06/13/2018 07:11 PM 06/13/2018 07:12 PM x x x x x Not Reported Not Reported
06/13/2018 11:08 PM 54.32 48.92 43.88 83.30 44.24 67.0 Not Reported 0.00 NW 0.00 NW 0.67 NW No x No Precipitation 06/13/2018 07:11 PM 06/13/2018 07:12 PM x x x x x Not Reported Not Reported
06/13/2018 11:23 PM 53.42 48.74 43.88 83.30 44.24 70.0 Not Reported 0.00 SW 0.00 S 0.45 SW No x No Precipitation 06/13/2018 07:11 PM 06/13/2018 07:12 PM x x x x x Not Reported Not Reported
06/13/2018 11:40 PM 52.52 48.38 43.88 83.30 44.24 72.0 Not Reported 0.00 SE 0.00 SE 1.34 S No x No Precipitation 06/13/2018 07:11 PM 06/13/2018 07:12 PM x x x x x Not Reported Not Reported
06/13/2018 11:53 PM 52.34 48.20 44.24 83.30 44.24 73.0 Not Reported 0.22 N 0.00 N 1.79 N No x No Precipitation 06/13/2018 07:11 PM 06/13/2018 07:12 PM x x x x x Not Reported Not Reported